sensor_id;sensor_type;location;lat;lon;timestamp;pressure;altitude;pressure_sealevel;temperature;humidity
17060;BME280;8646;49.716;9.266;2022-12-16T00:02:30;99310.06;;;-0.67;83.66
17060;BME280;8646;49.716;9.266;2022-12-16T00:05:34;99303.88;;;-0.67;83.26
17060;BME280;8646;49.716;9.266;2022-12-16T00:08:44;99310.06;;;-0.67;83.68
17060;BME280;8646;49.716;9.266;2022-12-16T00:11:47;99304.72;;;-0.65;83.24
17060;BME280;8646;49.716;9.266;2022-12-16T00:14:51;99307.41;;;-0.68;83.33
17060;BME280;8646;49.716;9.266;2022-12-16T00:17:55;99303.03;;;-0.72;83.45
17060;BME280;8646;49.716;9.266;2022-12-16T00:20:58;99308.34;;;-0.72;83.49
17060;BME280;8646;49.716;9.266;2022-12-16T00:24:01;99303.03;;;-0.72;83.65
17060;BME280;8646;49.716;9.266;2022-12-16T00:27:03;99304.84;;;-0.73;83.60
17060;BME280;8646;49.716;9.266;2022-12-16T00:30:09;99291.56;;;-0.73;83.72
17060;BME280;8646;49.716;9.266;2022-12-16T00:33:11;99297.69;;;-0.69;83.57
17060;BME280;8646;49.716;9.266;2022-12-16T00:36:14;99300.31;;;-0.66;83.70
17060;BME280;8646;49.716;9.266;2022-12-16T00:39:17;99299.38;;;-0.64;83.60
17060;BME280;8646;49.716;9.266;2022-12-16T00:42:20;99299.38;;;-0.64;83.48
17060;BME280;8646;49.716;9.266;2022-12-16T00:45:24;99305.56;;;-0.63;83.63
17060;BME280;8646;49.716;9.266;2022-12-16T00:48:26;99304.66;;;-0.61;83.46
17060;BME280;8646;49.716;9.266;2022-12-16T00:51:29;99315.28;;;-0.61;83.66
17060;BME280;8646;49.716;9.266;2022-12-16T00:54:32;99313.53;;;-0.62;83.40
17060;BME280;8646;49.716;9.266;2022-12-16T00:57:34;99321.56;;;-0.65;83.45
17060;BME280;8646;49.716;9.266;2022-12-16T01:00:39;99317.16;;;-0.69;83.43
17060;BME280;8646;49.716;9.266;2022-12-16T01:03:42;99330.38;;;-0.64;83.35
17060;BME280;8646;49.716;9.266;2022-12-16T01:06:45;99333.97;;;-0.65;83.26
17060;BME280;8646;49.716;9.266;2022-12-16T01:09:48;99339.28;;;-0.65;83.49
17060;BME280;8646;49.716;9.266;2022-12-16T01:12:52;99343.72;;;-0.69;83.47
17060;BME280;8646;49.716;9.266;2022-12-16T01:16:00;99356.94;;;-0.64;83.51
17060;BME280;8646;49.716;9.266;2022-12-16T01:19:03;99356.03;;;-0.62;83.19
17060;BME280;8646;49.716;9.266;2022-12-16T01:22:06;99362.22;;;-0.61;83.28
17060;BME280;8646;49.716;9.266;2022-12-16T01:25:10;99353.38;;;-0.62;83.12
17060;BME280;8646;49.716;9.266;2022-12-16T01:28:14;99361.31;;;-0.59;82.98
17060;BME280;8646;49.716;9.266;2022-12-16T01:31:19;99364.88;;;-0.60;83.12
17060;BME280;8646;49.716;9.266;2022-12-16T01:34:22;99363.91;;;-0.56;82.90
17060;BME280;8646;49.716;9.266;2022-12-16T01:37:25;99349.03;;;-0.66;82.95
17060;BME280;8646;49.716;9.266;2022-12-16T01:40:28;99361.25;;;-0.56;82.90
17060;BME280;8646;49.716;9.266;2022-12-16T01:43:33;99374.53;;;-0.53;82.63
17060;BME280;8646;49.716;9.266;2022-12-16T01:46:38;99371.88;;;-0.53;82.87
17060;BME280;8646;49.716;9.266;2022-12-16T01:49:43;99373.66;;;-0.53;82.67
17060;BME280;8646;49.716;9.266;2022-12-16T01:52:53;99370.09;;;-0.52;82.53
17060;BME280;8646;49.716;9.266;2022-12-16T01:55:58;99370.13;;;-0.55;82.64
17060;BME280;8646;49.716;9.266;2022-12-16T01:59:02;99363.09;;;-0.58;82.49
17060;BME280;8646;49.716;9.266;2022-12-16T02:02:07;99359.66;;;-0.66;82.52
17060;BME280;8646;49.716;9.266;2022-12-16T02:05:11;99359.56;;;-0.60;82.59
17060;BME280;8646;49.716;9.266;2022-12-16T02:08:21;99358.69;;;-0.60;82.33
17060;BME280;8646;49.716;9.266;2022-12-16T02:11:36;99368.44;;;-0.62;81.90
17060;BME280;8646;49.716;9.266;2022-12-16T02:14:55;99371.19;;;-0.67;82.04
17060;BME280;8646;49.716;9.266;2022-12-16T02:18:07;99359.69;;;-0.70;81.96
17060;BME280;8646;49.716;9.266;2022-12-16T02:21:26;99365.94;;;-0.73;81.70
17060;BME280;8646;49.716;9.266;2022-12-16T02:24:54;99355.34;;;-0.78;81.99
17060;BME280;8646;49.716;9.266;2022-12-16T02:28:07;99353.56;;;-0.74;81.92
17060;BME280;8646;49.716;9.266;2022-12-16T02:31:18;99351.81;;;-0.77;81.78
17060;BME280;8646;49.716;9.266;2022-12-16T02:34:31;99354.47;;;-0.78;81.57
17060;BME280;8646;49.716;9.266;2022-12-16T02:37:43;99355.38;;;-0.81;81.82
17060;BME280;8646;49.716;9.266;2022-12-16T02:40:51;99359.00;;;-0.86;81.99
17060;BME280;8646;49.716;9.266;2022-12-16T02:44:01;99360.78;;;-0.88;81.65
17060;BME280;8646;49.716;9.266;2022-12-16T02:47:07;99302.75;;;-1.20;81.76
17060;BME280;8646;49.716;9.266;2022-12-16T02:50:17;99353.88;;;-1.01;81.60
17060;BME280;8646;49.716;9.266;2022-12-16T02:53:20;99354.81;;;-1.05;81.49
17060;BME280;8646;49.716;9.266;2022-12-16T02:56:43;99356.69;;;-1.13;81.50
17060;BME280;8646;49.716;9.266;2022-12-16T02:59:54;99340.94;;;-1.32;81.12
17060;BME280;8646;49.716;9.266;2022-12-16T03:03:01;99370.16;;;-1.35;81.19
17060;BME280;8646;49.716;9.266;2022-12-16T03:06:10;99364.03;;;-1.40;80.61
17060;BME280;8646;49.716;9.266;2022-12-16T03:09:18;99380.06;;;-1.52;80.69
17060;BME280;8646;49.716;9.266;2022-12-16T03:12:23;99375.75;;;-1.62;80.66
17060;BME280;8646;49.716;9.266;2022-12-16T03:15:29;99383.78;;;-1.71;80.60
17060;BME280;8646;49.716;9.266;2022-12-16T03:18:37;99380.28;;;-1.76;80.23
17060;BME280;8646;49.716;9.266;2022-12-16T03:21:45;99378.69;;;-1.96;80.46
17060;BME280;8646;49.716;9.266;2022-12-16T03:24:51;99391.94;;;-1.97;80.50
17060;BME280;8646;49.716;9.266;2022-12-16T03:27:56;99388.41;;;-1.99;80.25
17060;BME280;8646;49.716;9.266;2022-12-16T03:31:07;99398.19;;;-2.09;80.53
17060;BME280;8646;49.716;9.266;2022-12-16T03:34:21;99393.84;;;-2.16;80.20
17060;BME280;8646;49.716;9.266;2022-12-16T03:37:31;99395.66;;;-2.24;80.55
17060;BME280;8646;49.716;9.266;2022-12-16T03:40:40;99365.75;;;-2.44;80.46
17060;BME280;8646;49.716;9.266;2022-12-16T03:43:44;99386.91;;;-2.35;80.85
17060;BME280;8646;49.716;9.266;2022-12-16T03:46:48;99386.91;;;-2.37;80.62
17060;BME280;8646;49.716;9.266;2022-12-16T03:49:53;99385.19;;;-2.45;80.59
17060;BME280;8646;49.716;9.266;2022-12-16T03:52:56;99391.38;;;-2.49;80.94
17060;BME280;8646;49.716;9.266;2022-12-16T03:55:59;99390.53;;;-2.51;80.80
17060;BME280;8646;49.716;9.266;2022-12-16T03:59:02;99398.47;;;-2.57;81.06
17060;BME280;8646;49.716;9.266;2022-12-16T04:02:05;99410.88;;;-2.64;80.85
17060;BME280;8646;49.716;9.266;2022-12-16T04:05:09;99410.88;;;-2.65;81.00
17060;BME280;8646;49.716;9.266;2022-12-16T04:08:13;99403.88;;;-2.76;80.86
17060;BME280;8646;49.716;9.266;2022-12-16T04:11:15;99419.78;;;-2.76;80.98
17060;BME280;8646;49.716;9.266;2022-12-16T04:14:35;99418.88;;;-2.82;81.18
17060;BME280;8646;49.716;9.266;2022-12-16T04:17:56;99414.47;;;-2.82;81.01
17060;BME280;8646;49.716;9.266;2022-12-16T04:21:17;99433.91;;;-2.87;81.11
17060;BME280;8646;49.716;9.266;2022-12-16T04:24:37;99442.75;;;-2.97;81.11
17060;BME280;8646;49.716;9.266;2022-12-16T04:27:40;99442.78;;;-3.02;81.27
17060;BME280;8646;49.716;9.266;2022-12-16T04:30:47;99451.59;;;-3.06;81.17
17060;BME280;8646;49.716;9.266;2022-12-16T04:33:50;99443.69;;;-3.09;81.16
17060;BME280;8646;49.716;9.266;2022-12-16T04:37:11;99456.91;;;-3.12;81.28
17060;BME280;8646;49.716;9.266;2022-12-16T04:40:31;99469.25;;;-3.14;81.26
17060;BME280;8646;49.716;9.266;2022-12-16T04:43:51;99467.50;;;-3.21;81.23
17060;BME280;8646;49.716;9.266;2022-12-16T04:47:12;99470.19;;;-3.24;81.25
17060;BME280;8646;49.716;9.266;2022-12-16T04:50:32;99475.47;;;-3.29;81.32
17060;BME280;8646;49.716;9.266;2022-12-16T04:53:53;99481.66;;;-3.33;81.49
17060;BME280;8646;49.716;9.266;2022-12-16T04:57:14;99479.88;;;-3.41;81.43
17060;BME280;8646;49.716;9.266;2022-12-16T05:00:34;99494.84;;;-3.37;81.34
17060;BME280;8646;49.716;9.266;2022-12-16T05:03:56;99505.44;;;-3.37;81.46
17060;BME280;8646;49.716;9.266;2022-12-16T05:07:16;99508.09;;;-3.43;81.50
17060;BME280;8646;49.716;9.266;2022-12-16T05:10:40;99518.66;;;-3.45;81.54
17060;BME280;8646;49.716;9.266;2022-12-16T05:14:06;99519.56;;;-3.44;81.34
17060;BME280;8646;49.716;9.266;2022-12-16T05:17:26;99521.28;;;-3.48;81.33
17060;BME280;8646;49.716;9.266;2022-12-16T05:20:46;99530.13;;;-3.54;81.60
17060;BME280;8646;49.716;9.266;2022-12-16T05:24:07;99535.41;;;-3.61;81.33
17060;BME280;8646;49.716;9.266;2022-12-16T05:27:29;99541.56;;;-3.68;81.44
17060;BME280;8646;49.716;9.266;2022-12-16T05:30:50;99539.78;;;-3.71;81.55
17060;BME280;8646;49.716;9.266;2022-12-16T05:34:11;99551.25;;;-3.75;81.73
17060;BME280;8646;49.716;9.266;2022-12-16T05:37:32;99554.75;;;-3.80;81.56
17060;BME280;8646;49.716;9.266;2022-12-16T05:40:52;99552.97;;;-3.86;81.50
17060;BME280;8646;49.716;9.266;2022-12-16T05:44:14;99564.41;;;-3.95;81.65
17060;BME280;8646;49.716;9.266;2022-12-16T05:47:34;99572.31;;;-4.02;81.73
17060;BME280;8646;49.716;9.266;2022-12-16T05:50:54;99574.06;;;-4.07;81.64
17060;BME280;8646;49.716;9.266;2022-12-16T05:54:14;99583.72;;;-4.14;82.00
17060;BME280;8646;49.716;9.266;2022-12-16T05:57:40;99582.81;;;-4.22;81.89
17060;BME280;8646;49.716;9.266;2022-12-16T06:01:02;99583.66;;;-4.26;82.00
17060;BME280;8646;49.716;9.266;2022-12-16T06:04:23;99599.50;;;-4.31;82.23
17060;BME280;8646;49.716;9.266;2022-12-16T06:07:49;99603.00;;;-4.33;82.21
17060;BME280;8646;49.716;9.266;2022-12-16T06:11:09;99612.66;;;-4.37;82.24
17060;BME280;8646;49.716;9.266;2022-12-16T06:14:30;99614.41;;;-4.40;82.14
17060;BME280;8646;49.716;9.266;2022-12-16T06:17:51;99617.91;;;-4.41;82.28
17060;BME280;8646;49.716;9.266;2022-12-16T06:21:11;99629.34;;;-4.44;82.27
17060;BME280;8646;49.716;9.266;2022-12-16T06:24:31;99630.22;;;-4.48;82.36
17060;BME280;8646;49.716;9.266;2022-12-16T06:27:52;99649.59;;;-4.47;82.43
17060;BME280;8646;49.716;9.266;2022-12-16T06:31:12;99649.53;;;-4.55;82.41
17060;BME280;8646;49.716;9.266;2022-12-16T06:34:34;99651.22;;;-4.60;82.29
17060;BME280;8646;49.716;9.266;2022-12-16T06:37:54;99657.38;;;-4.66;82.15
17060;BME280;8646;49.716;9.266;2022-12-16T06:41:14;99667.03;;;-4.71;82.37
17060;BME280;8646;49.716;9.266;2022-12-16T06:44:34;99672.25;;;-4.75;82.34
17060;BME280;8646;49.716;9.266;2022-12-16T06:47:54;99674.88;;;-4.78;82.34
17060;BME280;8646;49.716;9.266;2022-12-16T06:51:16;99666.00;;;-4.86;82.38
17060;BME280;8646;49.716;9.266;2022-12-16T06:54:36;99680.09;;;-4.84;82.51
17060;BME280;8646;49.716;9.266;2022-12-16T06:58:05;99636.72;;;-5.14;82.53
17060;BME280;8646;49.716;9.266;2022-12-16T07:01:25;99693.25;;;-4.89;82.38
17060;BME280;8646;49.716;9.266;2022-12-16T07:04:45;99697.59;;;-4.92;82.34
17060;BME280;8646;49.716;9.266;2022-12-16T07:08:08;99701.09;;;-4.93;82.51
17060;BME280;8646;49.716;9.266;2022-12-16T07:11:34;99714.28;;;-4.96;82.29
17060;BME280;8646;49.716;9.266;2022-12-16T07:15:07;99670.00;;;-5.26;82.20
17060;BME280;8646;49.716;9.266;2022-12-16T07:18:27;99734.50;;;-4.98;82.28
17060;BME280;8646;49.716;9.266;2022-12-16T07:21:49;99730.06;;;-5.01;81.95
17060;BME280;8646;49.716;9.266;2022-12-16T07:25:13;99740.56;;;-5.07;82.29
17060;BME280;8646;49.716;9.266;2022-12-16T07:28:33;99748.47;;;-5.09;82.28
17060;BME280;8646;49.716;9.266;2022-12-16T07:31:54;99746.72;;;-5.08;82.22
17060;BME280;8646;49.716;9.266;2022-12-16T07:35:17;99753.72;;;-5.12;82.17
17060;BME280;8646;49.716;9.266;2022-12-16T07:38:38;99766.06;;;-5.11;82.16
17060;BME280;8646;49.716;9.266;2022-12-16T07:42:10;99761.63;;;-5.13;82.13
17060;BME280;8646;49.716;9.266;2022-12-16T07:45:31;99766.06;;;-5.11;82.06
17060;BME280;8646;49.716;9.266;2022-12-16T07:48:51;99774.84;;;-5.09;82.18
17060;BME280;8646;49.716;9.266;2022-12-16T07:52:11;99780.16;;;-5.07;82.05
17060;BME280;8646;49.716;9.266;2022-12-16T07:55:40;99788.91;;;-5.10;81.90
17060;BME280;8646;49.716;9.266;2022-12-16T07:59:02;99784.50;;;-5.09;82.00
17060;BME280;8646;49.716;9.266;2022-12-16T08:02:32;99793.38;;;-5.04;81.55
17060;BME280;8646;49.716;9.266;2022-12-16T08:05:53;99805.69;;;-5.05;81.83
17060;BME280;8646;49.716;9.266;2022-12-16T08:09:16;99805.72;;;-5.03;81.76
17060;BME280;8646;49.716;9.266;2022-12-16T08:12:37;99803.97;;;-5.03;81.47
17060;BME280;8646;49.716;9.266;2022-12-16T08:15:59;99812.78;;;-4.99;81.58
17060;BME280;8646;49.716;9.266;2022-12-16T08:19:19;99817.22;;;-4.96;81.33
17060;BME280;8646;49.716;9.266;2022-12-16T08:22:40;99825.19;;;-4.90;81.32
17060;BME280;8646;49.716;9.266;2022-12-16T08:26:01;99827.94;;;-4.81;81.27
17060;BME280;8646;49.716;9.266;2022-12-16T08:29:21;99833.25;;;-4.78;81.04
17060;BME280;8646;49.716;9.266;2022-12-16T08:32:47;99839.41;;;-4.78;81.05
17060;BME280;8646;49.716;9.266;2022-12-16T08:36:19;99837.75;;;-4.71;80.85
17060;BME280;8646;49.716;9.266;2022-12-16T08:39:39;99843.00;;;-4.71;80.71
17060;BME280;8646;49.716;9.266;2022-12-16T08:43:20;99852.72;;;-4.67;80.95
17060;BME280;8646;49.716;9.266;2022-12-16T08:46:40;99860.69;;;-4.61;81.12
17060;BME280;8646;49.716;9.266;2022-12-16T08:50:03;99866.09;;;-4.52;80.96
17060;BME280;8646;49.716;9.266;2022-12-16T08:53:24;99862.69;;;-4.42;80.39
17060;BME280;8646;49.716;9.266;2022-12-16T08:56:44;99868.88;;;-4.40;80.65
17060;BME280;8646;49.716;9.266;2022-12-16T09:00:06;99879.47;;;-4.34;80.35
17060;BME280;8646;49.716;9.266;2022-12-16T09:03:26;99879.44;;;-4.37;80.72
17060;BME280;8646;49.716;9.266;2022-12-16T09:06:48;99888.28;;;-4.35;80.86
17060;BME280;8646;49.716;9.266;2022-12-16T09:10:10;99885.72;;;-4.27;80.86
17060;BME280;8646;49.716;9.266;2022-12-16T09:13:45;99879.53;;;-4.31;81.12
17060;BME280;8646;49.716;9.266;2022-12-16T09:17:09;99893.69;;;-4.19;80.97
17060;BME280;8646;49.716;9.266;2022-12-16T09:20:55;99900.81;;;-4.15;80.81
17060;BME280;8646;49.716;9.266;2022-12-16T09:24:18;99901.75;;;-4.09;80.63
17060;BME280;8646;49.716;9.266;2022-12-16T09:27:38;99904.44;;;-4.06;80.86
17060;BME280;8646;49.716;9.266;2022-12-16T09:31:07;99904.50;;;-3.95;80.62
17060;BME280;8646;49.716;9.266;2022-12-16T09:34:27;99908.91;;;-3.94;80.62
17060;BME280;8646;49.716;9.266;2022-12-16T09:37:47;99906.31;;;-3.91;80.46
17060;BME280;8646;49.716;9.266;2022-12-16T09:41:22;99909.91;;;-3.83;80.39
17060;BME280;8646;49.716;9.266;2022-12-16T09:44:58;99916.16;;;-3.70;80.52
17060;BME280;8646;49.716;9.266;2022-12-16T09:48:29;99903.91;;;-3.61;79.96
17060;BME280;8646;49.716;9.266;2022-12-16T09:51:56;99902.19;;;-3.53;79.96
17060;BME280;8646;49.716;9.266;2022-12-16T09:55:23;99908.41;;;-3.48;79.93
17060;BME280;8646;49.716;9.266;2022-12-16T09:58:50;99920.81;;;-3.40;80.22
17060;BME280;8646;49.716;9.266;2022-12-16T10:02:12;99912.06;;;-3.29;80.06
17060;BME280;8646;49.716;9.266;2022-12-16T10:05:45;99918.31;;;-3.19;80.18
17060;BME280;8646;49.716;9.266;2022-12-16T10:09:11;99919.25;;;-3.08;79.79
17060;BME280;8646;49.716;9.266;2022-12-16T10:12:44;99909.59;;;-3.00;80.09
17060;BME280;8646;49.716;9.266;2022-12-16T10:16:10;99921.09;;;-2.92;80.10
17060;BME280;8646;49.716;9.266;2022-12-16T10:19:47;99925.53;;;-2.83;80.07
17060;BME280;8646;49.716;9.266;2022-12-16T10:23:15;99917.66;;;-2.73;79.86
17060;BME280;8646;49.716;9.266;2022-12-16T10:26:48;99910.63;;;-2.67;79.53
17060;BME280;8646;49.716;9.266;2022-12-16T10:30:13;99914.19;;;-2.56;79.29
17060;BME280;8646;49.716;9.266;2022-12-16T10:33:42;99907.16;;;-2.51;79.29
17060;BME280;8646;49.716;9.266;2022-12-16T10:37:04;99910.69;;;-2.43;79.19
17060;BME280;8646;49.716;9.266;2022-12-16T10:40:32;99908.94;;;-2.32;79.16
17060;BME280;8646;49.716;9.266;2022-12-16T10:43:57;99907.22;;;-2.19;78.81
17060;BME280;8646;49.716;9.266;2022-12-16T10:47:20;99908.13;;;-2.13;79.12
17060;BME280;8646;49.716;9.266;2022-12-16T10:50:47;99904.59;;;-2.03;78.99
17060;BME280;8646;49.716;9.266;2022-12-16T10:54:22;99901.94;;;-1.97;78.76
17060;BME280;8646;49.716;9.266;2022-12-16T10:57:55;99909.03;;;-1.86;78.64
17060;BME280;8646;49.716;9.266;2022-12-16T11:01:23;99916.09;;;-1.75;78.51
17060;BME280;8646;49.716;9.266;2022-12-16T11:04:51;99910.81;;;-1.64;78.25
17060;BME280;8646;49.716;9.266;2022-12-16T11:08:25;99898.41;;;-1.61;78.20
17060;BME280;8646;49.716;9.266;2022-12-16T11:11:46;99915.22;;;-1.40;77.97
17060;BME280;8646;49.716;9.266;2022-12-16T11:15:21;99910.78;;;-1.31;77.54
17060;BME280;8646;49.716;9.266;2022-12-16T11:18:55;99911.66;;;-1.23;77.34
17060;BME280;8646;49.716;9.266;2022-12-16T11:22:22;99911.63;;;-1.13;77.37
17060;BME280;8646;49.716;9.266;2022-12-16T11:25:44;99902.72;;;-1.00;76.97
17060;BME280;8646;49.716;9.266;2022-12-16T11:29:16;99901.81;;;-0.93;77.06
17060;BME280;8646;49.716;9.266;2022-12-16T11:32:37;99899.16;;;-0.90;76.91
17060;BME280;8646;49.716;9.266;2022-12-16T11:36:07;99910.63;;;-0.76;76.45
17060;BME280;8646;49.716;9.266;2022-12-16T11:39:30;99856.75;;;-1.19;76.75
17060;BME280;8646;49.716;9.266;2022-12-16T11:42:52;99916.88;;;-0.91;76.58
17060;BME280;8646;49.716;9.266;2022-12-16T11:46:23;99885.97;;;-1.19;76.91
17060;BME280;8646;49.716;9.266;2022-12-16T11:49:44;99931.06;;;-1.01;76.93
17060;BME280;8646;49.716;9.266;2022-12-16T11:53:17;99927.53;;;-1.06;77.16
17060;BME280;8646;49.716;9.266;2022-12-16T11:56:45;99938.16;;;-1.01;77.11
17060;BME280;8646;49.716;9.266;2022-12-16T12:00:12;99940.78;;;-0.95;77.34
17060;BME280;8646;49.716;9.266;2022-12-16T12:03:44;99938.13;;;-0.94;77.31
17060;BME280;8646;49.716;9.266;2022-12-16T12:07:23;99926.66;;;-0.97;77.05
17060;BME280;8646;49.716;9.266;2022-12-16T12:11:12;99941.66;;;-0.83;77.19
17060;BME280;8646;49.716;9.266;2022-12-16T12:14:42;99927.50;;;-0.94;76.95
17060;BME280;8646;49.716;9.266;2022-12-16T12:18:14;99947.81;;;-0.79;77.07
17060;BME280;8646;49.716;9.266;2022-12-16T12:21:44;99952.28;;;-0.83;76.70
17060;BME280;8646;49.716;9.266;2022-12-16T12:25:17;99954.06;;;-0.94;76.88
17060;BME280;8646;49.716;9.266;2022-12-16T12:28:45;99956.75;;;-1.00;77.23
17060;BME280;8646;49.716;9.266;2022-12-16T12:32:14;99956.72;;;-1.03;76.90
17060;BME280;8646;49.716;9.266;2022-12-16T12:35:55;99959.41;;;-1.06;77.11
17060;BME280;8646;49.716;9.266;2022-12-16T12:39:21;99973.56;;;-1.08;77.03
17060;BME280;8646;49.716;9.266;2022-12-16T12:42:46;99980.66;;;-1.12;77.18
17060;BME280;8646;49.716;9.266;2022-12-16T12:46:13;99979.78;;;-1.16;77.37
17060;BME280;8646;49.716;9.266;2022-12-16T12:49:41;99979.78;;;-1.19;77.43
17060;BME280;8646;49.716;9.266;2022-12-16T12:53:11;99983.31;;;-1.07;77.55
17060;BME280;8646;49.716;9.266;2022-12-16T12:56:47;99992.13;;;-0.83;77.75
17060;BME280;8646;49.716;9.266;2022-12-16T13:00:14;99984.97;;;-0.58;77.36
17060;BME280;8646;49.716;9.266;2022-12-16T13:03:53;99986.66;;;-0.32;76.98
17060;BME280;8646;49.716;9.266;2022-12-16T13:07:17;99989.22;;;-0.13;76.49
17060;BME280;8646;49.716;9.266;2022-12-16T13:10:39;99995.31;;;0.03;76.33
17060;BME280;8646;49.716;9.266;2022-12-16T13:13:59;99990.78;;;0.22;76.17
17060;BME280;8646;49.716;9.266;2022-12-16T13:17:21;99993.34;;;0.37;76.48
17060;BME280;8646;49.716;9.266;2022-12-16T13:20:48;99995.06;;;0.46;75.89
17060;BME280;8646;49.716;9.266;2022-12-16T13:24:19;99975.56;;;0.44;76.34
17060;BME280;8646;49.716;9.266;2022-12-16T13:27:49;99989.63;;;0.58;75.93
17060;BME280;8646;49.716;9.266;2022-12-16T13:31:12;100000.34;;;0.55;75.94
17060;BME280;8646;49.716;9.266;2022-12-16T13:34:33;100004.84;;;0.44;76.03
17060;BME280;8646;49.716;9.266;2022-12-16T13:37:54;100005.81;;;0.30;75.86
17060;BME280;8646;49.716;9.266;2022-12-16T13:45:36;100015.69;;;0.16;76.12
17060;BME280;8646;49.716;9.266;2022-12-16T13:49:40;100029.88;;;0.15;76.07
17060;BME280;8646;49.716;9.266;2022-12-16T13:53:13;100028.97;;;0.16;76.13
17060;BME280;8646;49.716;9.266;2022-12-16T13:56:47;100034.25;;;0.19;75.45
17060;BME280;8646;49.716;9.266;2022-12-16T14:00:16;100043.97;;;0.25;75.62
17060;BME280;8646;49.716;9.266;2022-12-16T14:03:42;100046.63;;;0.29;75.79
17060;BME280;8646;49.716;9.266;2022-12-16T14:07:09;100044.81;;;0.37;75.76
17060;BME280;8646;49.716;9.266;2022-12-16T14:10:30;100059.81;;;0.49;75.81
17060;BME280;8646;49.716;9.266;2022-12-16T14:13:56;100058.91;;;0.55;75.66
17060;BME280;8646;49.716;9.266;2022-12-16T14:17:24;100061.53;;;0.61;75.88
17060;BME280;8646;49.716;9.266;2022-12-16T14:20:53;100063.25;;;0.66;75.77
17060;BME280;8646;49.716;9.266;2022-12-16T14:24:20;100070.34;;;0.70;76.02
17060;BME280;8646;49.716;9.266;2022-12-16T14:27:43;100080.09;;;0.73;75.93
17060;BME280;8646;49.716;9.266;2022-12-16T14:31:14;100077.44;;;0.71;75.99
17060;BME280;8646;49.716;9.266;2022-12-16T14:34:42;100075.63;;;0.73;76.05
17060;BME280;8646;49.716;9.266;2022-12-16T14:38:23;100088.06;;;0.74;76.11
17060;BME280;8646;49.716;9.266;2022-12-16T14:41:49;100094.28;;;0.75;76.29
17060;BME280;8646;49.716;9.266;2022-12-16T14:45:25;100094.28;;;0.75;76.33
17060;BME280;8646;49.716;9.266;2022-12-16T14:48:50;100097.84;;;0.72;76.43
17060;BME280;8646;49.716;9.266;2022-12-16T14:52:18;100100.53;;;0.69;76.49
17060;BME280;8646;49.716;9.266;2022-12-16T14:55:40;100108.47;;;0.74;76.23
17060;BME280;8646;49.716;9.266;2022-12-16T14:59:14;100100.53;;;0.72;76.46
17060;BME280;8646;49.716;9.266;2022-12-16T15:02:48;100111.19;;;0.68;76.19
17060;BME280;8646;49.716;9.266;2022-12-16T15:06:17;100114.75;;;0.67;76.61
17060;BME280;8646;49.716;9.266;2022-12-16T15:09:47;100128.94;;;0.66;76.41
17060;BME280;8646;49.716;9.266;2022-12-16T15:13:15;100136.97;;;0.63;76.47
17060;BME280;8646;49.716;9.266;2022-12-16T15:16:36;100143.19;;;0.57;76.73
17060;BME280;8646;49.716;9.266;2022-12-16T15:20:08;100144.13;;;0.55;76.79
17060;BME280;8646;49.716;9.266;2022-12-16T15:23:44;100131.72;;;0.48;76.61
17060;BME280;8646;49.716;9.266;2022-12-16T15:27:22;100140.59;;;0.47;76.84
17060;BME280;8646;49.716;9.266;2022-12-16T15:30:53;100157.47;;;0.49;77.17
17060;BME280;8646;49.716;9.266;2022-12-16T15:34:44;100162.78;;;0.47;77.08
17060;BME280;8646;49.716;9.266;2022-12-16T15:38:33;100168.13;;;0.49;76.97
17060;BME280;8646;49.716;9.266;2022-12-16T15:41:54;100175.22;;;0.47;77.00
17060;BME280;8646;49.716;9.266;2022-12-16T15:45:15;100182.31;;;0.45;77.12
17060;BME280;8646;49.716;9.266;2022-12-16T15:48:43;100180.53;;;0.45;77.23
17060;BME280;8646;49.716;9.266;2022-12-16T15:52:22;100190.31;;;0.42;77.19
17060;BME280;8646;49.716;9.266;2022-12-16T15:55:55;100193.88;;;0.39;77.32
17060;BME280;8646;49.716;9.266;2022-12-16T15:59:22;100211.63;;;0.35;77.24
17060;BME280;8646;49.716;9.266;2022-12-16T16:02:46;100201.91;;;0.31;77.49
17060;BME280;8646;49.716;9.266;2022-12-16T16:06:20;100213.47;;;0.24;77.38
17060;BME280;8646;49.716;9.266;2022-12-16T16:09:46;100215.25;;;0.16;77.37
17060;BME280;8646;49.716;9.266;2022-12-16T16:13:07;100220.59;;;0.01;77.55
17060;BME280;8646;49.716;9.266;2022-12-16T16:16:28;100223.28;;;-0.01;77.73
17060;BME280;8646;49.716;9.266;2022-12-16T16:19:49;100233.91;;;-0.01;77.82
17060;BME280;8646;49.716;9.266;2022-12-16T16:23:13;100241.00;;;-0.04;77.94
17060;BME280;8646;49.716;9.266;2022-12-16T16:26:44;100241.88;;;-0.05;78.22
17060;BME280;8646;49.716;9.266;2022-12-16T16:30:09;100240.13;;;-0.03;77.79
17060;BME280;8646;49.716;9.266;2022-12-16T16:33:29;100197.59;;;-0.43;77.87
17060;BME280;8646;49.716;9.266;2022-12-16T16:36:54;100249.00;;;-0.22;78.13
17060;BME280;8646;49.716;9.266;2022-12-16T16:40:20;100254.31;;;-0.31;78.38
17060;BME280;8646;49.716;9.266;2022-12-16T16:43:42;100265.81;;;-0.40;78.52
17060;BME280;8646;49.716;9.266;2022-12-16T16:47:14;100268.50;;;-0.51;78.66
17060;BME280;8646;49.716;9.266;2022-12-16T16:50:36;100271.16;;;-0.60;78.66
17060;BME280;8646;49.716;9.266;2022-12-16T16:54:05;100279.97;;;-0.68;78.88
17060;BME280;8646;49.716;9.266;2022-12-16T16:57:27;100277.31;;;-0.74;78.99
17060;BME280;8646;49.716;9.266;2022-12-16T17:00:54;100281.72;;;-0.78;79.12
17060;BME280;8646;49.716;9.266;2022-12-16T17:04:14;100292.38;;;-0.81;79.66
17060;BME280;8646;49.716;9.266;2022-12-16T17:07:35;100296.78;;;-0.82;79.48
17060;BME280;8646;49.716;9.266;2022-12-16T17:11:16;100294.09;;;-0.86;79.76
17060;BME280;8646;49.716;9.266;2022-12-16T17:14:38;100294.09;;;-0.88;79.62
17060;BME280;8646;49.716;9.266;2022-12-16T17:17:58;100302.06;;;-0.92;79.78
17060;BME280;8646;49.716;9.266;2022-12-16T17:21:18;100299.41;;;-0.98;80.06
17060;BME280;8646;49.716;9.266;2022-12-16T17:24:38;100305.56;;;-1.07;79.89
17060;BME280;8646;49.716;9.266;2022-12-16T17:27:59;100312.63;;;-1.13;80.07
17060;BME280;8646;49.716;9.266;2022-12-16T17:31:17;100314.38;;;-1.22;80.33
17060;BME280;8646;49.716;9.266;2022-12-16T17:34:37;100317.84;;;-1.29;80.50
17060;BME280;8646;49.716;9.266;2022-12-16T17:38:01;100324.88;;;-1.35;80.58
17060;BME280;8646;49.716;9.266;2022-12-16T17:41:21;100330.16;;;-1.43;80.55
17060;BME280;8646;49.716;9.266;2022-12-16T17:44:47;100331.00;;;-1.50;80.90
17060;BME280;8646;49.716;9.266;2022-12-16T17:48:12;100338.91;;;-1.62;81.18
17060;BME280;8646;49.716;9.266;2022-12-16T17:51:35;100347.69;;;-1.68;81.22
17060;BME280;8646;49.716;9.266;2022-12-16T17:54:56;100360.00;;;-1.77;81.50
17060;BME280;8646;49.716;9.266;2022-12-16T17:58:16;100364.38;;;-1.87;81.45
17060;BME280;8646;49.716;9.266;2022-12-16T18:01:37;100358.16;;;-1.90;81.86